createdAt,value
2022-09-07T00:01:18.408Z,101481.77
2022-09-07T00:06:41.800Z,101491.80
2022-09-07T00:12:04.624Z,101490.08
2022-09-07T00:17:27.550Z,101474.63
2022-09-07T00:22:50.094Z,101479.68
2022-09-07T00:28:12.887Z,101477.45
2022-09-07T00:33:35.821Z,101479.75
2022-09-07T00:38:58.775Z,101478.02
2022-09-07T00:45:07.618Z,101475.50
2022-09-07T00:50:39.980Z,101472.14
2022-09-07T00:56:05.152Z,101477.09
2022-09-07T01:01:28.670Z,101474.17
2022-09-07T01:06:52.974Z,101474.52
2022-09-07T01:12:17.129Z,101476.77
2022-09-07T01:24:02.481Z,101467.95
2022-09-07T01:30:00.738Z,101459.88
2022-09-07T01:35:34.414Z,101462.92
2022-09-07T01:41:04.792Z,101460.84
2022-09-07T01:46:37.791Z,101463.30
2022-09-07T01:52:05.261Z,101452.14
2022-09-07T01:57:32.731Z,101450.50
2022-09-07T02:02:59.602Z,101449.81
2022-09-07T02:08:29.750Z,101446.67
2022-09-07T02:13:49.192Z,101442.59
2022-09-07T02:19:16.963Z,101444.32
2022-09-07T02:24:49.204Z,101440.78
2022-09-07T02:30:12.195Z,101443.94
2022-09-07T02:35:34.995Z,101442.70
2022-09-07T02:41:00.945Z,101437.74
2022-09-07T02:46:49.205Z,101438.17
2022-09-07T02:52:19.408Z,101435.02
2022-09-07T02:57:59.360Z,101439.73
2022-09-07T03:03:50.458Z,101431.23
2022-09-07T03:09:17.493Z,101431.56
2022-09-07T03:14:51.902Z,101435.58
2022-09-07T03:20:14.422Z,101437.51
2022-09-07T03:25:37.170Z,101436.19
2022-09-07T03:31:03.828Z,101435.16
2022-09-07T03:36:26.168Z,101439.08
2022-09-07T03:41:48.794Z,101429.41
2022-09-07T03:47:11.033Z,101432.38
2022-09-07T03:52:33.257Z,101443.15
2022-09-07T03:57:55.465Z,101441.62
2022-09-07T04:03:17.646Z,101438.59
2022-09-07T04:08:43.267Z,101437.88
2022-09-07T04:14:05.616Z,101438.83
2022-09-07T04:19:27.958Z,101425.15
2022-09-07T04:24:50.408Z,101420.86
2022-09-07T04:30:13.873Z,101416.78
2022-09-07T04:35:36.245Z,101433.20
2022-09-07T04:41:00.136Z,101429.67
2022-09-07T04:46:33.442Z,101421.82
2022-09-07T04:51:57.047Z,101412.98
2022-09-07T04:57:20.850Z,101396.81
2022-09-07T05:02:43.520Z,101397.03
2022-09-07T05:08:06.278Z,101389.70
2022-09-07T05:13:28.528Z,101393.80
2022-09-07T05:18:52.001Z,101415.17
2022-09-07T05:24:16.818Z,101421.96
2022-09-07T05:35:04.801Z,101419.28
2022-09-07T05:40:27.731Z,101421.95
2022-09-07T05:45:49.987Z,101433.10
2022-09-07T05:51:13.415Z,101422.64
2022-09-07T05:56:36.393Z,101427.85
2022-09-07T06:01:59.137Z,101433.97
2022-09-07T06:07:23.674Z,101431.79
2022-09-07T06:12:49.167Z,101424.28
2022-09-07T06:18:11.087Z,101423.17
2022-09-07T06:23:33.260Z,101416.85
2022-09-07T06:28:58.175Z,101412.08
2022-09-07T06:34:20.831Z,101415.12
2022-09-07T06:39:43.187Z,101393.86
2022-09-07T06:45:05.456Z,101408.91
2022-09-07T06:50:28.488Z,101406.39
2022-09-07T06:55:57.960Z,101410.31
2022-09-07T07:01:26.588Z,101405.39
2022-09-07T07:06:56.166Z,101400.45
2022-09-07T07:17:39.407Z,101407.51
2022-09-07T07:23:05.270Z,101420.38
2022-09-07T07:33:53.686Z,101418.19
2022-09-07T07:44:41.588Z,101411.85
2022-09-07T07:55:44.728Z,101423.13
2022-09-07T08:00:55.784Z,101409.02
2022-09-07T08:06:23.143Z,101415.38
2022-09-07T08:11:46.092Z,101426.05
2022-09-07T08:17:08.339Z,101419.34
2022-09-07T08:22:34.745Z,101409.69
2022-09-07T08:27:55.824Z,101410.98
2022-09-07T08:33:18.594Z,101402.27
2022-09-07T08:38:43.221Z,101394.66
2022-09-07T08:44:32.396Z,101393.95
2022-09-07T08:50:09.088Z,101383.16
2022-09-07T08:56:09.053Z,101376.46
2022-09-07T09:07:44.611Z,101358.73
2022-09-07T09:13:30.185Z,101352.98
2022-09-07T09:19:34.733Z,101344.11
2022-09-07T09:25:08.699Z,101343.19
2022-09-07T09:30:34.147Z,101329.38
2022-09-07T09:35:59.879Z,101324.16
2022-09-07T09:41:28.536Z,101325.42
2022-09-07T09:52:32.656Z,101326.74
2022-09-07T10:03:56.438Z,101332.63
2022-09-07T10:09:22.327Z,101331.08
2022-09-07T10:14:50.825Z,101310.95
2022-09-07T10:20:30.078Z,101300.64
2022-09-07T10:25:55.540Z,101306.34
2022-09-07T10:31:36.819Z,101301.05
2022-09-07T10:37:09.258Z,101297.67
2022-09-07T10:48:34.780Z,101290.19
2022-09-07T10:54:30.738Z,101275.25
2022-09-07T11:00:13.488Z,101278.93
2022-09-07T11:05:52.262Z,101277.70
2022-09-07T11:12:04.629Z,101285.89
2022-09-07T11:17:20.586Z,101282.15
2022-09-07T11:22:50.246Z,101277.36
2022-09-07T11:28:37.026Z,101267.69
2022-09-07T11:34:25.661Z,101270.66
2022-09-07T11:40:03.651Z,101255.91
2022-09-07T11:45:42.547Z,101242.35
2022-09-07T11:51:19.426Z,101244.16
2022-09-07T11:56:46.034Z,101239.55
2022-09-07T12:02:55.360Z,101241.84
2022-09-07T12:08:13.966Z,101243.14
2022-09-07T12:14:06.794Z,101244.38
2022-09-07T12:19:35.074Z,101244.22
2022-09-07T12:25:00.596Z,101241.43
2022-09-07T12:30:29.306Z,101228.23
2022-09-07T12:36:00.679Z,101229.11
2022-09-07T12:41:28.868Z,101230.98
2022-09-07T12:46:59.015Z,101216.81
2022-09-07T12:53:02.985Z,101213.56
2022-09-07T12:58:34.149Z,101210.05
2022-09-07T13:04:06.714Z,101200.89
2022-09-07T13:09:52.222Z,101195.34
2022-09-07T13:15:23.881Z,101185.20
2022-09-07T13:20:43.075Z,101178.43
2022-09-07T13:26:08.540Z,101176.22
2022-09-07T13:31:49.031Z,101165.16
2022-09-07T13:37:14.491Z,101164.40
2022-09-07T13:42:44.825Z,101166.50
2022-09-07T13:48:24.975Z,101170.60
2022-09-07T13:54:14.793Z,101151.85
2022-09-07T13:59:42.505Z,101149.78
2022-09-07T14:05:08.258Z,101145.89
2022-09-07T14:10:34.057Z,101131.27
2022-09-07T14:16:02.295Z,101129.11
2022-09-07T14:21:26.074Z,101122.97
2022-09-07T14:26:51.151Z,101124.77
2022-09-07T14:32:15.084Z,101122.81
2022-09-07T14:37:39.238Z,101119.89
2022-09-07T14:43:02.881Z,101125.04
2022-09-07T14:48:32.407Z,101126.56
2022-09-07T14:53:57.962Z,101120.59
2022-09-07T14:59:40.871Z,101122.90
2022-09-07T15:05:23.438Z,101103.55
2022-09-07T15:16:30.960Z,101096.01
2022-09-07T15:21:56.109Z,101104.16
2022-09-07T15:27:36.268Z,101106.34
2022-09-07T15:32:58.516Z,101101.34
2022-09-07T15:43:47.621Z,101086.48
2022-09-07T15:49:12.508Z,101093.86
2022-09-07T15:54:39.856Z,101079.77
2022-09-07T16:00:01.599Z,101079.47
2022-09-07T16:05:27.933Z,101088.55
2022-09-07T16:11:04.496Z,101083.86
2022-09-07T16:16:15.689Z,101078.91
2022-09-07T16:21:41.022Z,101075.11
2022-09-07T16:27:00.739Z,101077.56
2022-09-07T16:43:12.258Z,101081.02
2022-09-07T16:48:34.538Z,101067.48
2022-09-07T16:53:59.997Z,101065.41
2022-09-07T16:59:27.664Z,101051.42
2022-09-07T17:04:52.353Z,101059.25
2022-09-07T17:10:15.092Z,101053.94
2022-09-07T17:15:39.742Z,101057.98
2022-09-07T17:21:09.841Z,101067.72
2022-09-07T17:26:27.670Z,101077.19
2022-09-07T17:37:15.922Z,101084.84
2022-09-07T17:48:02.018Z,101076.71
2022-09-07T17:53:24.722Z,101081.71
2022-09-07T17:58:51.879Z,101076.12
2022-09-07T18:04:16.322Z,101082.51
2022-09-07T18:09:39.389Z,101094.42
2022-09-07T18:15:02.185Z,101091.22
2022-09-07T18:20:24.975Z,101088.10
2022-09-07T18:25:47.556Z,101084.45
2022-09-07T18:31:12.233Z,101077.56
2022-09-07T18:36:36.285Z,101081.92
2022-09-07T18:42:00.001Z,101081.86
2022-09-07T18:47:27.876Z,101088.33
2022-09-07T18:52:54.980Z,101095.88
2022-09-07T18:58:10.751Z,101101.83
2022-09-07T19:03:34.602Z,101100.53
2022-09-07T19:08:57.765Z,101097.06
2022-09-07T19:14:21.848Z,101099.50
2022-09-07T19:19:44.929Z,101087.11
2022-09-07T19:25:07.098Z,101070.31
2022-09-07T19:30:30.837Z,101078.34
2022-09-07T19:35:53.868Z,101086.44
2022-09-07T19:46:49.363Z,101073.39
2022-09-07T19:52:12.030Z,101073.08
2022-09-07T19:57:34.194Z,101064.48
2022-09-07T20:02:56.394Z,101072.84
2022-09-07T20:08:19.696Z,101072.09
2022-09-07T20:13:42.677Z,101072.36
2022-09-07T20:19:07.100Z,101086.72
2022-09-07T20:24:32.399Z,101080.46
2022-09-07T20:29:54.542Z,101081.19
2022-09-07T20:35:17.340Z,101075.43
2022-09-07T20:40:39.562Z,101084.19
2022-09-07T20:46:05.533Z,101080.50
2022-09-07T20:51:31.080Z,101085.08
2022-09-07T20:56:53.417Z,101079.55
2022-09-07T21:02:16.311Z,101070.86
2022-09-07T21:07:38.971Z,101073.44
2022-09-07T21:13:01.112Z,101083.98
2022-09-07T21:18:29.009Z,101088.05
2022-09-07T21:23:52.303Z,101078.09
2022-09-07T21:29:18.689Z,101082.48
2022-09-07T21:34:41.447Z,101085.89
2022-09-07T21:40:05.309Z,101093.48
2022-09-07T21:45:27.674Z,101093.39
2022-09-07T21:50:50.337Z,101083.51
2022-09-07T21:56:22.235Z,101073.98
2022-09-07T22:01:45.865Z,101068.25
2022-09-07T22:07:08.030Z,101070.23
2022-09-07T22:12:30.368Z,101080.17
2022-09-07T22:17:52.528Z,101074.05
2022-09-07T22:23:14.711Z,101069.61
2022-09-07T22:28:37.006Z,101071.45
2022-09-07T22:34:00.660Z,101077.35
2022-09-07T22:39:26.313Z,101074.53
2022-09-07T22:44:48.455Z,101073.80
2022-09-07T22:50:11.939Z,101068.66
2022-09-07T22:55:34.075Z,101065.34
2022-09-07T23:00:58.622Z,101065.71
2022-09-07T23:06:30.943Z,101058.73
2022-09-07T23:11:54.486Z,101053.56
2022-09-07T23:17:17.012Z,101046.84
2022-09-07T23:22:39.558Z,101051.50
2022-09-07T23:28:01.719Z,101039.83
2022-09-07T23:33:23.875Z,101038.02
2022-09-07T23:38:47.236Z,101021.95
2022-09-07T23:44:10.335Z,101028.44
2022-09-07T23:49:32.466Z,101020.96
2022-09-07T23:54:54.613Z,101000.17
